sensor_id;sensor_type;location;lat;lon;timestamp;temperature;humidity
13052;DHT22;6592;47.484;9.726;2023-03-21T00:02:13;8.50;99.90
13052;DHT22;6592;47.484;9.726;2023-03-21T00:04:43;8.50;99.90
13052;DHT22;6592;47.484;9.726;2023-03-21T00:07:20;8.40;99.90
13052;DHT22;6592;47.484;9.726;2023-03-21T00:09:52;8.40;99.90
13052;DHT22;6592;47.484;9.726;2023-03-21T00:12:31;8.30;99.90
13052;DHT22;6592;47.484;9.726;2023-03-21T00:15:05;8.20;99.90
13052;DHT22;6592;47.484;9.726;2023-03-21T00:17:34;8.10;99.90
13052;DHT22;6592;47.484;9.726;2023-03-21T00:20:07;8.10;99.90
13052;DHT22;6592;47.484;9.726;2023-03-21T00:22:43;8.10;99.90
13052;DHT22;6592;47.484;9.726;2023-03-21T00:25:11;8.00;99.90
13052;DHT22;6592;47.484;9.726;2023-03-21T00:27:41;8.00;99.90
13052;DHT22;6592;47.484;9.726;2023-03-21T00:30:30;7.90;99.90
13052;DHT22;6592;47.484;9.726;2023-03-21T00:32:59;8.00;99.90
13052;DHT22;6592;47.484;9.726;2023-03-21T00:35:49;8.00;99.90
13052;DHT22;6592;47.484;9.726;2023-03-21T00:38:29;8.00;99.90
13052;DHT22;6592;47.484;9.726;2023-03-21T00:41:02;8.00;99.90
13052;DHT22;6592;47.484;9.726;2023-03-21T00:43:49;8.10;99.90
13052;DHT22;6592;47.484;9.726;2023-03-21T00:46:21;8.10;99.90
13052;DHT22;6592;47.484;9.726;2023-03-21T00:48:56;8.00;99.90
13052;DHT22;6592;47.484;9.726;2023-03-21T00:51:25;8.00;99.90
13052;DHT22;6592;47.484;9.726;2023-03-21T00:53:58;7.90;99.90
13052;DHT22;6592;47.484;9.726;2023-03-21T00:56:28;7.90;99.90
13052;DHT22;6592;47.484;9.726;2023-03-21T00:58:58;7.90;99.90
13052;DHT22;6592;47.484;9.726;2023-03-21T01:01:27;7.90;99.90
13052;DHT22;6592;47.484;9.726;2023-03-21T01:03:58;7.90;99.90
13052;DHT22;6592;47.484;9.726;2023-03-21T01:06:34;7.90;99.90
13052;DHT22;6592;47.484;9.726;2023-03-21T01:09:10;8.00;99.90
13052;DHT22;6592;47.484;9.726;2023-03-21T01:11:39;8.10;99.90
13052;DHT22;6592;47.484;9.726;2023-03-21T01:14:11;8.10;99.90
13052;DHT22;6592;47.484;9.726;2023-03-21T01:16:50;8.10;99.90
13052;DHT22;6592;47.484;9.726;2023-03-21T01:19:21;8.10;99.90
13052;DHT22;6592;47.484;9.726;2023-03-21T01:22:06;8.10;99.90
13052;DHT22;6592;47.484;9.726;2023-03-21T01:24:37;8.10;99.90
13052;DHT22;6592;47.484;9.726;2023-03-21T01:27:19;8.00;99.90
13052;DHT22;6592;47.484;9.726;2023-03-21T01:29:48;8.00;99.90
13052;DHT22;6592;47.484;9.726;2023-03-21T01:32:16;7.90;99.90
13052;DHT22;6592;47.484;9.726;2023-03-21T01:34:45;7.80;99.90
13052;DHT22;6592;47.484;9.726;2023-03-21T01:37:14;7.80;99.90
13052;DHT22;6592;47.484;9.726;2023-03-21T01:39:47;7.80;99.90
13052;DHT22;6592;47.484;9.726;2023-03-21T01:42:16;7.80;99.90
13052;DHT22;6592;47.484;9.726;2023-03-21T01:44:53;7.80;99.90
13052;DHT22;6592;47.484;9.726;2023-03-21T01:47:22;7.80;99.90
13052;DHT22;6592;47.484;9.726;2023-03-21T01:49:53;7.80;99.90
13052;DHT22;6592;47.484;9.726;2023-03-21T01:52:26;7.80;99.90
13052;DHT22;6592;47.484;9.726;2023-03-21T01:55:07;7.90;99.90
13052;DHT22;6592;47.484;9.726;2023-03-21T01:57:42;7.90;99.90
13052;DHT22;6592;47.484;9.726;2023-03-21T02:00:30;8.00;99.90
13052;DHT22;6592;47.484;9.726;2023-03-21T02:03:02;8.00;99.90
13052;DHT22;6592;47.484;9.726;2023-03-21T02:05:52;8.10;99.90
13052;DHT22;6592;47.484;9.726;2023-03-21T02:08:24;8.20;99.90
13052;DHT22;6592;47.484;9.726;2023-03-21T02:11:07;8.20;99.90
13052;DHT22;6592;47.484;9.726;2023-03-21T02:13:36;8.30;99.90
13052;DHT22;6592;47.484;9.726;2023-03-21T02:16:11;8.30;99.90
13052;DHT22;6592;47.484;9.726;2023-03-21T02:18:46;8.40;99.90
13052;DHT22;6592;47.484;9.726;2023-03-21T02:21:48;8.40;99.90
13052;DHT22;6592;47.484;9.726;2023-03-21T02:24:53;8.50;99.90
13052;DHT22;6592;47.484;9.726;2023-03-21T02:27:37;8.60;99.90
13052;DHT22;6592;47.484;9.726;2023-03-21T02:30:34;8.50;99.90
13052;DHT22;6592;47.484;9.726;2023-03-21T02:33:41;8.50;99.90
13052;DHT22;6592;47.484;9.726;2023-03-21T02:36:22;8.50;99.90
13052;DHT22;6592;47.484;9.726;2023-03-21T02:39:00;8.40;99.90
13052;DHT22;6592;47.484;9.726;2023-03-21T02:41:43;8.40;99.90
13052;DHT22;6592;47.484;9.726;2023-03-21T02:44:19;8.50;99.90
13052;DHT22;6592;47.484;9.726;2023-03-21T02:46:53;8.60;99.90
13052;DHT22;6592;47.484;9.726;2023-03-21T02:49:34;8.60;99.90
13052;DHT22;6592;47.484;9.726;2023-03-21T02:52:13;8.60;99.90
13052;DHT22;6592;47.484;9.726;2023-03-21T02:55:06;8.50;99.90
13052;DHT22;6592;47.484;9.726;2023-03-21T02:57:42;8.60;99.90
13052;DHT22;6592;47.484;9.726;2023-03-21T03:00:16;8.60;99.90
13052;DHT22;6592;47.484;9.726;2023-03-21T03:02:47;8.60;99.90
13052;DHT22;6592;47.484;9.726;2023-03-21T03:05:36;8.60;99.90
13052;DHT22;6592;47.484;9.726;2023-03-21T03:08:26;8.60;99.90
13052;DHT22;6592;47.484;9.726;2023-03-21T03:11:25;8.60;99.90
13052;DHT22;6592;47.484;9.726;2023-03-21T03:17:17;8.40;99.90
13052;DHT22;6592;47.484;9.726;2023-03-21T03:19:57;8.50;99.90
13052;DHT22;6592;47.484;9.726;2023-03-21T03:22:47;8.50;99.90
13052;DHT22;6592;47.484;9.726;2023-03-21T03:25:23;8.40;99.90
13052;DHT22;6592;47.484;9.726;2023-03-21T03:28:12;8.40;99.90
13052;DHT22;6592;47.484;9.726;2023-03-21T03:30:44;8.40;99.90
13052;DHT22;6592;47.484;9.726;2023-03-21T03:33:35;8.40;99.90
13052;DHT22;6592;47.484;9.726;2023-03-21T03:36:10;8.40;99.90
13052;DHT22;6592;47.484;9.726;2023-03-21T03:38:59;8.40;99.90
13052;DHT22;6592;47.484;9.726;2023-03-21T03:41:32;8.30;99.90
13052;DHT22;6592;47.484;9.726;2023-03-21T03:44:25;8.30;99.90
13052;DHT22;6592;47.484;9.726;2023-03-21T03:46:58;8.20;99.90
13052;DHT22;6592;47.484;9.726;2023-03-21T03:49:31;8.20;99.90
13052;DHT22;6592;47.484;9.726;2023-03-21T03:52:07;8.20;99.90
13052;DHT22;6592;47.484;9.726;2023-03-21T03:54:39;8.20;99.90
13052;DHT22;6592;47.484;9.726;2023-03-21T03:57:09;8.10;99.90
13052;DHT22;6592;47.484;9.726;2023-03-21T03:59:41;8.10;99.90
13052;DHT22;6592;47.484;9.726;2023-03-21T04:02:12;8.20;99.90
13052;DHT22;6592;47.484;9.726;2023-03-21T04:04:41;8.10;99.90
13052;DHT22;6592;47.484;9.726;2023-03-21T04:07:10;8.10;99.90
13052;DHT22;6592;47.484;9.726;2023-03-21T04:09:38;8.10;99.90
13052;DHT22;6592;47.484;9.726;2023-03-21T04:12:11;8.00;99.90
13052;DHT22;6592;47.484;9.726;2023-03-21T04:14:42;8.10;99.90
13052;DHT22;6592;47.484;9.726;2023-03-21T04:17:13;8.10;99.90
13052;DHT22;6592;47.484;9.726;2023-03-21T04:19:45;8.00;99.90
13052;DHT22;6592;47.484;9.726;2023-03-21T04:22:36;7.70;99.90
13052;DHT22;6592;47.484;9.726;2023-03-21T04:25:08;8.00;99.90
13052;DHT22;6592;47.484;9.726;2023-03-21T04:27:50;7.90;99.90
13052;DHT22;6592;47.484;9.726;2023-03-21T04:30:20;7.90;99.90
13052;DHT22;6592;47.484;9.726;2023-03-21T04:32:51;7.90;99.90
13052;DHT22;6592;47.484;9.726;2023-03-21T04:35:23;7.90;99.90
13052;DHT22;6592;47.484;9.726;2023-03-21T04:37:54;7.90;99.90
13052;DHT22;6592;47.484;9.726;2023-03-21T04:40:24;7.90;99.90
13052;DHT22;6592;47.484;9.726;2023-03-21T04:42:52;7.90;99.90
13052;DHT22;6592;47.484;9.726;2023-03-21T04:45:22;7.90;99.90
13052;DHT22;6592;47.484;9.726;2023-03-21T04:47:51;7.90;99.90
13052;DHT22;6592;47.484;9.726;2023-03-21T04:50:21;8.00;99.90
13052;DHT22;6592;47.484;9.726;2023-03-21T04:52:49;8.00;99.90
13052;DHT22;6592;47.484;9.726;2023-03-21T04:55:18;8.00;99.90
13052;DHT22;6592;47.484;9.726;2023-03-21T04:57:47;8.00;99.90
13052;DHT22;6592;47.484;9.726;2023-03-21T05:00:16;8.00;99.90
13052;DHT22;6592;47.484;9.726;2023-03-21T05:02:47;8.00;99.90
13052;DHT22;6592;47.484;9.726;2023-03-21T05:05:16;8.00;99.90
13052;DHT22;6592;47.484;9.726;2023-03-21T05:07:45;8.00;99.90
13052;DHT22;6592;47.484;9.726;2023-03-21T05:10:14;8.00;99.90
13052;DHT22;6592;47.484;9.726;2023-03-21T05:12:43;8.00;99.90
13052;DHT22;6592;47.484;9.726;2023-03-21T05:15:13;8.00;99.90
13052;DHT22;6592;47.484;9.726;2023-03-21T05:17:42;7.90;99.90
13052;DHT22;6592;47.484;9.726;2023-03-21T05:20:13;8.00;99.90
13052;DHT22;6592;47.484;9.726;2023-03-21T05:22:45;8.00;99.90
13052;DHT22;6592;47.484;9.726;2023-03-21T05:25:18;8.00;99.90
13052;DHT22;6592;47.484;9.726;2023-03-21T05:28:01;8.00;99.90
13052;DHT22;6592;47.484;9.726;2023-03-21T05:30:30;8.00;99.90
13052;DHT22;6592;47.484;9.726;2023-03-21T05:32:59;8.00;99.90
13052;DHT22;6592;47.484;9.726;2023-03-21T05:35:30;8.10;99.90
13052;DHT22;6592;47.484;9.726;2023-03-21T05:37:59;8.10;99.90
13052;DHT22;6592;47.484;9.726;2023-03-21T05:40:28;8.10;99.90
13052;DHT22;6592;47.484;9.726;2023-03-21T05:42:56;8.20;99.90
13052;DHT22;6592;47.484;9.726;2023-03-21T05:45:25;8.20;99.90
13052;DHT22;6592;47.484;9.726;2023-03-21T05:47:54;8.30;99.90
13052;DHT22;6592;47.484;9.726;2023-03-21T05:50:22;8.20;99.90
13052;DHT22;6592;47.484;9.726;2023-03-21T05:52:53;8.20;99.90
13052;DHT22;6592;47.484;9.726;2023-03-21T05:55:22;8.20;99.90
13052;DHT22;6592;47.484;9.726;2023-03-21T05:57:50;8.10;99.90
13052;DHT22;6592;47.484;9.726;2023-03-21T06:00:19;8.10;99.90
13052;DHT22;6592;47.484;9.726;2023-03-21T06:02:48;8.20;99.90
13052;DHT22;6592;47.484;9.726;2023-03-21T06:05:18;8.20;99.90
13052;DHT22;6592;47.484;9.726;2023-03-21T06:07:47;8.30;99.90
13052;DHT22;6592;47.484;9.726;2023-03-21T06:10:18;8.30;99.90
13052;DHT22;6592;47.484;9.726;2023-03-21T06:12:46;8.30;99.90
13052;DHT22;6592;47.484;9.726;2023-03-21T06:15:15;8.30;99.90
13052;DHT22;6592;47.484;9.726;2023-03-21T06:17:44;8.40;99.90
13052;DHT22;6592;47.484;9.726;2023-03-21T06:20:13;8.40;99.90
13052;DHT22;6592;47.484;9.726;2023-03-21T06:22:42;8.50;99.90
13052;DHT22;6592;47.484;9.726;2023-03-21T06:25:11;8.70;99.90
13052;DHT22;6592;47.484;9.726;2023-03-21T06:27:42;8.70;99.90
13052;DHT22;6592;47.484;9.726;2023-03-21T06:30:11;8.80;99.90
13052;DHT22;6592;47.484;9.726;2023-03-21T06:32:41;8.90;99.90
13052;DHT22;6592;47.484;9.726;2023-03-21T06:35:09;9.00;99.90
13052;DHT22;6592;47.484;9.726;2023-03-21T06:37:38;9.10;99.90
13052;DHT22;6592;47.484;9.726;2023-03-21T06:40:08;9.30;99.90
13052;DHT22;6592;47.484;9.726;2023-03-21T06:42:37;9.40;99.90
13052;DHT22;6592;47.484;9.726;2023-03-21T06:45:08;9.50;99.90
13052;DHT22;6592;47.484;9.726;2023-03-21T06:47:38;9.60;99.90
13052;DHT22;6592;47.484;9.726;2023-03-21T06:50:07;9.70;99.90
13052;DHT22;6592;47.484;9.726;2023-03-21T06:52:36;9.80;99.90
13052;DHT22;6592;47.484;9.726;2023-03-21T06:55:06;9.80;99.90
13052;DHT22;6592;47.484;9.726;2023-03-21T06:57:36;9.90;99.90
13052;DHT22;6592;47.484;9.726;2023-03-21T07:00:09;10.00;99.90
13052;DHT22;6592;47.484;9.726;2023-03-21T07:02:39;10.20;99.90
13052;DHT22;6592;47.484;9.726;2023-03-21T07:05:08;10.30;99.90
13052;DHT22;6592;47.484;9.726;2023-03-21T07:07:37;10.30;99.90
13052;DHT22;6592;47.484;9.726;2023-03-21T07:10:07;10.40;99.90
13052;DHT22;6592;47.484;9.726;2023-03-21T07:12:36;10.50;99.90
13052;DHT22;6592;47.484;9.726;2023-03-21T07:15:09;10.60;99.90
13052;DHT22;6592;47.484;9.726;2023-03-21T07:17:37;10.70;99.90
13052;DHT22;6592;47.484;9.726;2023-03-21T07:20:07;10.70;99.90
13052;DHT22;6592;47.484;9.726;2023-03-21T07:22:39;10.80;99.90
13052;DHT22;6592;47.484;9.726;2023-03-21T07:25:08;10.90;99.90
13052;DHT22;6592;47.484;9.726;2023-03-21T07:27:37;10.90;99.90
13052;DHT22;6592;47.484;9.726;2023-03-21T07:30:12;11.10;99.90
13052;DHT22;6592;47.484;9.726;2023-03-21T07:32:40;11.10;99.90
13052;DHT22;6592;47.484;9.726;2023-03-21T07:35:12;11.10;99.90
13052;DHT22;6592;47.484;9.726;2023-03-21T07:37:42;11.20;99.90
13052;DHT22;6592;47.484;9.726;2023-03-21T07:40:11;11.30;99.90
13052;DHT22;6592;47.484;9.726;2023-03-21T07:42:40;11.40;99.90
13052;DHT22;6592;47.484;9.726;2023-03-21T07:45:11;12.40;99.90
13052;DHT22;6592;47.484;9.726;2023-03-21T07:47:47;14.00;99.90
13052;DHT22;6592;47.484;9.726;2023-03-21T07:50:17;15.30;99.90
13052;DHT22;6592;47.484;9.726;2023-03-21T07:52:46;16.40;99.90
13052;DHT22;6592;47.484;9.726;2023-03-21T07:55:15;17.40;99.90
13052;DHT22;6592;47.484;9.726;2023-03-21T07:57:44;17.70;99.90
13052;DHT22;6592;47.484;9.726;2023-03-21T08:00:19;17.70;99.90
13052;DHT22;6592;47.484;9.726;2023-03-21T08:02:50;17.70;99.90
13052;DHT22;6592;47.484;9.726;2023-03-21T08:05:26;18.10;99.90
13052;DHT22;6592;47.484;9.726;2023-03-21T08:07:56;19.20;99.90
13052;DHT22;6592;47.484;9.726;2023-03-21T08:10:25;20.30;99.90
13052;DHT22;6592;47.484;9.726;2023-03-21T08:12:55;20.70;99.90
13052;DHT22;6592;47.484;9.726;2023-03-21T08:15:26;20.80;99.90
13052;DHT22;6592;47.484;9.726;2023-03-21T08:17:58;21.30;99.90
13052;DHT22;6592;47.484;9.726;2023-03-21T08:20:27;21.50;99.90
13052;DHT22;6592;47.484;9.726;2023-03-21T08:22:56;22.00;99.10
13052;DHT22;6592;47.484;9.726;2023-03-21T08:25:24;22.90;96.80
13052;DHT22;6592;47.484;9.726;2023-03-21T08:27:53;23.30;95.40
13052;DHT22;6592;47.484;9.726;2023-03-21T08:30:25;24.50;92.50
13052;DHT22;6592;47.484;9.726;2023-03-21T08:32:56;25.00;89.20
13052;DHT22;6592;47.484;9.726;2023-03-21T08:35:29;25.80;85.00
13052;DHT22;6592;47.484;9.726;2023-03-21T08:37:58;26.50;80.00
13052;DHT22;6592;47.484;9.726;2023-03-21T08:40:29;27.60;77.60
13052;DHT22;6592;47.484;9.726;2023-03-21T08:42:58;27.90;69.90
13052;DHT22;6592;47.484;9.726;2023-03-21T08:45:28;27.40;67.30
13052;DHT22;6592;47.484;9.726;2023-03-21T08:47:57;27.50;69.00
13052;DHT22;6592;47.484;9.726;2023-03-21T08:50:26;28.50;67.50
13052;DHT22;6592;47.484;9.726;2023-03-21T08:52:58;29.40;63.00
13052;DHT22;6592;47.484;9.726;2023-03-21T08:55:26;30.10;59.00
13052;DHT22;6592;47.484;9.726;2023-03-21T08:57:55;30.30;58.30
13052;DHT22;6592;47.484;9.726;2023-03-21T09:00:24;30.40;57.10
13052;DHT22;6592;47.484;9.726;2023-03-21T09:02:55;30.80;54.90
13052;DHT22;6592;47.484;9.726;2023-03-21T09:05:25;30.40;54.60
13052;DHT22;6592;47.484;9.726;2023-03-21T09:07:55;29.40;53.70
13052;DHT22;6592;47.484;9.726;2023-03-21T09:10:24;29.40;54.30
13052;DHT22;6592;47.484;9.726;2023-03-21T09:12:54;29.70;54.50
13052;DHT22;6592;47.484;9.726;2023-03-21T09:15:25;29.20;54.60
13052;DHT22;6592;47.484;9.726;2023-03-21T09:17:58;29.00;54.00
13052;DHT22;6592;47.484;9.726;2023-03-21T09:20:40;27.90;54.90
13052;DHT22;6592;47.484;9.726;2023-03-21T09:23:10;27.10;56.80
13052;DHT22;6592;47.484;9.726;2023-03-21T09:25:39;26.60;59.10
13052;DHT22;6592;47.484;9.726;2023-03-21T09:28:08;26.30;59.30
13052;DHT22;6592;47.484;9.726;2023-03-21T09:30:38;26.00;59.50
13052;DHT22;6592;47.484;9.726;2023-03-21T09:33:09;25.60;59.50
13052;DHT22;6592;47.484;9.726;2023-03-21T09:35:47;25.00;59.90
13052;DHT22;6592;47.484;9.726;2023-03-21T09:38:18;24.60;64.20
13052;DHT22;6592;47.484;9.726;2023-03-21T09:41:00;24.40;67.90
13052;DHT22;6592;47.484;9.726;2023-03-21T09:43:49;24.40;69.50
13052;DHT22;6592;47.484;9.726;2023-03-21T09:46:24;24.20;69.80
13052;DHT22;6592;47.484;9.726;2023-03-21T09:48:58;23.90;70.70
13052;DHT22;6592;47.484;9.726;2023-03-21T09:51:32;23.90;71.40
13052;DHT22;6592;47.484;9.726;2023-03-21T09:54:06;23.70;72.20
13052;DHT22;6592;47.484;9.726;2023-03-21T09:56:42;23.40;73.00
13052;DHT22;6592;47.484;9.726;2023-03-21T09:59:20;23.20;74.10
13052;DHT22;6592;47.484;9.726;2023-03-21T10:01:51;23.10;74.20
13052;DHT22;6592;47.484;9.726;2023-03-21T10:04:23;23.00;74.50
13052;DHT22;6592;47.484;9.726;2023-03-21T10:06:57;23.00;75.30
13052;DHT22;6592;47.484;9.726;2023-03-21T10:09:29;23.50;75.20
13052;DHT22;6592;47.484;9.726;2023-03-21T10:12:02;24.70;72.40
13052;DHT22;6592;47.484;9.726;2023-03-21T10:14:34;26.10;70.70
13052;DHT22;6592;47.484;9.726;2023-03-21T10:17:14;27.70;67.40
13052;DHT22;6592;47.484;9.726;2023-03-21T10:19:50;29.10;62.00
13052;DHT22;6592;47.484;9.726;2023-03-21T10:22:22;30.00;59.70
13052;DHT22;6592;47.484;9.726;2023-03-21T10:24:52;31.00;57.80
13052;DHT22;6592;47.484;9.726;2023-03-21T10:27:20;31.60;56.10
13052;DHT22;6592;47.484;9.726;2023-03-21T10:29:49;31.80;54.80
13052;DHT22;6592;47.484;9.726;2023-03-21T10:32:19;32.50;54.60
13052;DHT22;6592;47.484;9.726;2023-03-21T10:34:53;32.80;50.30
13052;DHT22;6592;47.484;9.726;2023-03-21T10:37:23;33.20;49.70
13052;DHT22;6592;47.484;9.726;2023-03-21T10:39:53;33.30;49.40
13052;DHT22;6592;47.484;9.726;2023-03-21T10:42:24;32.90;50.40
13052;DHT22;6592;47.484;9.726;2023-03-21T10:44:54;32.00;50.90
13052;DHT22;6592;47.484;9.726;2023-03-21T10:47:24;31.40;52.80
13052;DHT22;6592;47.484;9.726;2023-03-21T10:50:00;30.90;52.40
13052;DHT22;6592;47.484;9.726;2023-03-21T10:52:40;30.60;53.00
13052;DHT22;6592;47.484;9.726;2023-03-21T10:55:19;30.60;53.60
13052;DHT22;6592;47.484;9.726;2023-03-21T10:57:52;30.60;52.40
13052;DHT22;6592;47.484;9.726;2023-03-21T11:00:26;31.40;51.80
13052;DHT22;6592;47.484;9.726;2023-03-21T11:02:56;32.10;51.30
13052;DHT22;6592;47.484;9.726;2023-03-21T11:05:34;32.90;50.90
13052;DHT22;6592;47.484;9.726;2023-03-21T11:08:05;33.90;48.30
13052;DHT22;6592;47.484;9.726;2023-03-21T11:10:37;34.30;46.80
13052;DHT22;6592;47.484;9.726;2023-03-21T11:13:12;34.80;45.40
13052;DHT22;6592;47.484;9.726;2023-03-21T11:15:52;34.90;46.00
13052;DHT22;6592;47.484;9.726;2023-03-21T11:18:22;33.90;44.80
13052;DHT22;6592;47.484;9.726;2023-03-21T11:20:56;34.20;45.10
13052;DHT22;6592;47.484;9.726;2023-03-21T11:23:31;33.80;44.60
13052;DHT22;6592;47.484;9.726;2023-03-21T11:26:08;34.20;45.80
13052;DHT22;6592;47.484;9.726;2023-03-21T11:28:40;34.40;45.90
13052;DHT22;6592;47.484;9.726;2023-03-21T11:31:10;34.40;45.40
13052;DHT22;6592;47.484;9.726;2023-03-21T11:33:42;34.20;45.70
13052;DHT22;6592;47.484;9.726;2023-03-21T11:36:31;33.90;44.30
13052;DHT22;6592;47.484;9.726;2023-03-21T11:39:14;33.00;45.60
13052;DHT22;6592;47.484;9.726;2023-03-21T11:41:50;32.40;46.70
13052;DHT22;6592;47.484;9.726;2023-03-21T11:44:28;32.10;47.20
13052;DHT22;6592;47.484;9.726;2023-03-21T11:46:57;31.70;47.90
13052;DHT22;6592;47.484;9.726;2023-03-21T11:49:27;31.20;47.20
13052;DHT22;6592;47.484;9.726;2023-03-21T11:52:18;30.50;48.00
13052;DHT22;6592;47.484;9.726;2023-03-21T11:55:02;30.00;49.50
13052;DHT22;6592;47.484;9.726;2023-03-21T11:57:39;29.70;48.90
13052;DHT22;6592;47.484;9.726;2023-03-21T12:00:16;29.90;49.10
13052;DHT22;6592;47.484;9.726;2023-03-21T12:03:03;29.90;50.10
13052;DHT22;6592;47.484;9.726;2023-03-21T12:05:42;30.10;49.00
13052;DHT22;6592;47.484;9.726;2023-03-21T12:08:23;29.70;49.10
13052;DHT22;6592;47.484;9.726;2023-03-21T12:10:54;29.30;49.30
13052;DHT22;6592;47.484;9.726;2023-03-21T12:13:46;29.50;49.60
13052;DHT22;6592;47.484;9.726;2023-03-21T12:16:27;29.40;49.40
13052;DHT22;6592;47.484;9.726;2023-03-21T12:19:12;29.50;49.90
13052;DHT22;6592;47.484;9.726;2023-03-21T12:21:50;29.40;49.80
13052;DHT22;6592;47.484;9.726;2023-03-21T12:24:26;29.30;50.90
13052;DHT22;6592;47.484;9.726;2023-03-21T12:27:03;29.30;51.30
13052;DHT22;6592;47.484;9.726;2023-03-21T12:29:46;29.50;50.90
13052;DHT22;6592;47.484;9.726;2023-03-21T12:32:28;29.70;49.50
13052;DHT22;6592;47.484;9.726;2023-03-21T12:35:15;29.70;49.30
13052;DHT22;6592;47.484;9.726;2023-03-21T12:37:55;29.80;48.30
13052;DHT22;6592;47.484;9.726;2023-03-21T12:40:47;29.70;49.20
13052;DHT22;6592;47.484;9.726;2023-03-21T12:43:33;29.50;48.90
13052;DHT22;6592;47.484;9.726;2023-03-21T12:46:12;29.40;49.20
13052;DHT22;6592;47.484;9.726;2023-03-21T12:48:46;29.20;49.60
13052;DHT22;6592;47.484;9.726;2023-03-21T12:51:19;28.90;49.70
13052;DHT22;6592;47.484;9.726;2023-03-21T12:53:56;28.50;50.30
13052;DHT22;6592;47.484;9.726;2023-03-21T12:56:30;28.20;51.30
13052;DHT22;6592;47.484;9.726;2023-03-21T12:59:11;28.00;51.40
13052;DHT22;6592;47.484;9.726;2023-03-21T13:01:41;27.40;51.70
13052;DHT22;6592;47.484;9.726;2023-03-21T13:04:38;27.00;52.00
13052;DHT22;6592;47.484;9.726;2023-03-21T13:07:12;26.60;51.60
13052;DHT22;6592;47.484;9.726;2023-03-21T13:09:43;26.10;51.70
13052;DHT22;6592;47.484;9.726;2023-03-21T13:12:29;25.70;51.00
13052;DHT22;6592;47.484;9.726;2023-03-21T13:15:24;25.20;51.90
13052;DHT22;6592;47.484;9.726;2023-03-21T13:18:01;24.50;53.50
13052;DHT22;6592;47.484;9.726;2023-03-21T13:20:36;24.10;54.00
13052;DHT22;6592;47.484;9.726;2023-03-21T13:23:08;23.60;55.10
13052;DHT22;6592;47.484;9.726;2023-03-21T13:25:41;23.10;56.30
13052;DHT22;6592;47.484;9.726;2023-03-21T13:28:19;22.80;56.60
13052;DHT22;6592;47.484;9.726;2023-03-21T13:30:50;22.60;56.70
13052;DHT22;6592;47.484;9.726;2023-03-21T13:33:24;22.40;57.20
13052;DHT22;6592;47.484;9.726;2023-03-21T13:35:59;22.20;57.20
13052;DHT22;6592;47.484;9.726;2023-03-21T13:38:33;22.20;57.40
13052;DHT22;6592;47.484;9.726;2023-03-21T13:41:08;22.30;57.10
13052;DHT22;6592;47.484;9.726;2023-03-21T13:43:43;22.40;57.40
13052;DHT22;6592;47.484;9.726;2023-03-21T13:46:14;22.40;56.90
13052;DHT22;6592;47.484;9.726;2023-03-21T13:49:13;22.50;57.50
13052;DHT22;6592;47.484;9.726;2023-03-21T13:51:50;22.70;57.70
13052;DHT22;6592;47.484;9.726;2023-03-21T13:54:22;22.80;57.00
13052;DHT22;6592;47.484;9.726;2023-03-21T13:56:56;22.90;56.60
13052;DHT22;6592;47.484;9.726;2023-03-21T13:59:40;23.00;56.70
13052;DHT22;6592;47.484;9.726;2023-03-21T14:02:29;22.90;57.40
13052;DHT22;6592;47.484;9.726;2023-03-21T14:05:01;23.10;57.40
13052;DHT22;6592;47.484;9.726;2023-03-21T14:07:34;23.10;57.00
13052;DHT22;6592;47.484;9.726;2023-03-21T14:10:07;23.20;58.50
13052;DHT22;6592;47.484;9.726;2023-03-21T14:12:39;23.20;57.20
13052;DHT22;6592;47.484;9.726;2023-03-21T14:15:17;23.30;58.10
13052;DHT22;6592;47.484;9.726;2023-03-21T14:17:52;23.50;57.50
13052;DHT22;6592;47.484;9.726;2023-03-21T14:20:23;23.70;57.60
13052;DHT22;6592;47.484;9.726;2023-03-21T14:22:52;23.80;57.70
13052;DHT22;6592;47.484;9.726;2023-03-21T14:25:23;24.00;57.50
13052;DHT22;6592;47.484;9.726;2023-03-21T14:28:00;24.20;57.50
13052;DHT22;6592;47.484;9.726;2023-03-21T14:30:36;24.30;56.70
13052;DHT22;6592;47.484;9.726;2023-03-21T14:33:13;24.30;56.30
13052;DHT22;6592;47.484;9.726;2023-03-21T14:35:45;24.50;57.10
13052;DHT22;6592;47.484;9.726;2023-03-21T14:38:19;24.40;57.10
13052;DHT22;6592;47.484;9.726;2023-03-21T14:40:49;24.00;58.10
13052;DHT22;6592;47.484;9.726;2023-03-21T14:43:19;24.00;58.20
13052;DHT22;6592;47.484;9.726;2023-03-21T14:45:51;23.90;58.10
13052;DHT22;6592;47.484;9.726;2023-03-21T14:48:27;24.00;58.10
13052;DHT22;6592;47.484;9.726;2023-03-21T14:50:58;24.00;58.70
13052;DHT22;6592;47.484;9.726;2023-03-21T14:53:31;23.70;58.60
13052;DHT22;6592;47.484;9.726;2023-03-21T14:56:03;23.60;59.00
13052;DHT22;6592;47.484;9.726;2023-03-21T14:58:37;23.50;59.20
13052;DHT22;6592;47.484;9.726;2023-03-21T15:01:13;23.40;59.70
13052;DHT22;6592;47.484;9.726;2023-03-21T15:03:44;23.20;59.50
13052;DHT22;6592;47.484;9.726;2023-03-21T15:06:14;23.30;59.90
13052;DHT22;6592;47.484;9.726;2023-03-21T15:08:53;23.40;59.50
13052;DHT22;6592;47.484;9.726;2023-03-21T15:11:29;23.30;59.70
13052;DHT22;6592;47.484;9.726;2023-03-21T15:14:00;23.10;60.60
13052;DHT22;6592;47.484;9.726;2023-03-21T15:16:34;23.00;60.30
13052;DHT22;6592;47.484;9.726;2023-03-21T15:19:04;22.80;60.90
13052;DHT22;6592;47.484;9.726;2023-03-21T15:21:36;22.70;60.70
13052;DHT22;6592;47.484;9.726;2023-03-21T15:24:09;22.50;61.00
13052;DHT22;6592;47.484;9.726;2023-03-21T15:26:43;22.30;61.80
13052;DHT22;6592;47.484;9.726;2023-03-21T15:29:14;21.90;62.20
13052;DHT22;6592;47.484;9.726;2023-03-21T15:31:46;21.70;63.40
13052;DHT22;6592;47.484;9.726;2023-03-21T15:34:20;21.30;65.20
13052;DHT22;6592;47.484;9.726;2023-03-21T15:36:55;21.00;65.00
13052;DHT22;6592;47.484;9.726;2023-03-21T15:39:27;20.80;65.90
13052;DHT22;6592;47.484;9.726;2023-03-21T15:42:02;20.70;65.90
13052;DHT22;6592;47.484;9.726;2023-03-21T15:44:35;20.40;67.00
13052;DHT22;6592;47.484;9.726;2023-03-21T15:47:12;20.20;67.80
13052;DHT22;6592;47.484;9.726;2023-03-21T15:49:41;20.10;68.50
13052;DHT22;6592;47.484;9.726;2023-03-21T15:52:12;19.80;69.00
13052;DHT22;6592;47.484;9.726;2023-03-21T15:54:42;19.80;70.40
13052;DHT22;6592;47.484;9.726;2023-03-21T15:57:21;19.70;71.30
13052;DHT22;6592;47.484;9.726;2023-03-21T15:59:54;19.50;71.30
13052;DHT22;6592;47.484;9.726;2023-03-21T16:02:28;19.50;72.20
13052;DHT22;6592;47.484;9.726;2023-03-21T16:04:58;19.30;72.70
13052;DHT22;6592;47.484;9.726;2023-03-21T16:07:28;19.20;73.70
13052;DHT22;6592;47.484;9.726;2023-03-21T16:10:02;19.10;72.90
13052;DHT22;6592;47.484;9.726;2023-03-21T16:12:32;19.10;73.40
13052;DHT22;6592;47.484;9.726;2023-03-21T16:15:01;19.00;74.20
13052;DHT22;6592;47.484;9.726;2023-03-21T16:17:34;18.90;74.00
13052;DHT22;6592;47.484;9.726;2023-03-21T16:20:12;18.60;75.20
13052;DHT22;6592;47.484;9.726;2023-03-21T16:22:44;18.40;75.50
13052;DHT22;6592;47.484;9.726;2023-03-21T16:25:13;18.20;76.70
13052;DHT22;6592;47.484;9.726;2023-03-21T16:27:42;18.10;78.20
13052;DHT22;6592;47.484;9.726;2023-03-21T16:30:13;17.80;77.00
13052;DHT22;6592;47.484;9.726;2023-03-21T16:32:43;17.80;78.70
13052;DHT22;6592;47.484;9.726;2023-03-21T16:35:12;17.70;80.20
13052;DHT22;6592;47.484;9.726;2023-03-21T16:37:42;17.70;79.30
13052;DHT22;6592;47.484;9.726;2023-03-21T16:40:16;17.60;79.50